createdAt,value
2018-12-06T00:00:46.157Z,7.22
2018-12-06T00:03:14.534Z,7.30
2018-12-06T00:05:42.925Z,8.98
2018-12-06T00:08:18.327Z,8.45
2018-12-06T00:10:47.344Z,6.10
2018-12-06T00:13:15.743Z,8.60
2018-12-06T00:15:44.181Z,21.10
2018-12-06T00:18:12.560Z,7.70
2018-12-06T00:20:40.957Z,12.60
2018-12-06T00:23:09.360Z,10.13
2018-12-06T00:25:37.791Z,17.27
2018-12-06T00:28:06.172Z,11.05
2018-12-06T00:30:37.809Z,9.93
2018-12-06T00:33:06.453Z,9.55
2018-12-06T00:35:34.854Z,8.30
2018-12-06T00:38:03.244Z,9.85
2018-12-06T00:40:31.617Z,19.98
2018-12-06T00:43:00.019Z,13.22
2018-12-06T00:45:28.427Z,15.85
2018-12-06T00:47:56.803Z,12.50
2018-12-06T00:50:25.181Z,13.90
2018-12-06T00:52:53.587Z,7.87
2018-12-06T00:55:21.955Z,10.43
2018-12-06T00:57:50.829Z,11.60
2018-12-06T01:00:19.349Z,13.58
2018-12-06T01:02:47.730Z,11.97
2018-12-06T01:05:16.308Z,13.83
2018-12-06T01:07:44.717Z,21.35
2018-12-06T01:10:13.666Z,7.95
2018-12-06T01:12:42.031Z,13.03
2018-12-06T01:15:10.445Z,15.98
2018-12-06T01:17:38.847Z,13.15
2018-12-06T01:20:07.986Z,16.97
2018-12-06T01:22:36.405Z,9.43
2018-12-06T01:25:05.914Z,9.15
2018-12-06T01:27:34.354Z,11.45
2018-12-06T01:30:02.771Z,10.90
2018-12-06T01:32:31.145Z,15.88
2018-12-06T01:34:59.636Z,15.63
2018-12-06T01:37:28.037Z,14.05
2018-12-06T01:39:56.688Z,10.68
2018-12-06T01:42:25.067Z,13.80
2018-12-06T01:44:53.798Z,10.88
2018-12-06T01:47:22.476Z,7.97
2018-12-06T01:49:50.860Z,9.15
2018-12-06T01:52:19.252Z,9.15
2018-12-06T01:54:47.628Z,14.35
2018-12-06T01:57:16.000Z,11.00
2018-12-06T01:59:44.407Z,12.13
2018-12-06T02:02:12.759Z,7.05
2018-12-06T02:04:41.133Z,8.90
2018-12-06T02:07:09.547Z,7.15
2018-12-06T02:09:38.039Z,10.10
2018-12-06T02:12:06.518Z,7.25
2018-12-06T02:14:34.912Z,6.67
2018-12-06T02:17:03.402Z,9.63
2018-12-06T02:19:31.789Z,9.80
2018-12-06T02:22:00.303Z,8.23
2018-12-06T02:24:28.783Z,9.45
2018-12-06T02:26:57.456Z,7.28
2018-12-06T02:29:30.252Z,8.07
2018-12-06T02:31:59.060Z,6.60
2018-12-06T02:34:27.492Z,6.28
2018-12-06T02:36:55.880Z,8.70
2018-12-06T02:39:24.244Z,7.40
2018-12-06T02:41:52.615Z,6.20
2018-12-06T02:44:21.055Z,7.55
2018-12-06T02:46:49.421Z,6.03
2018-12-06T02:49:54.958Z,8.55
2018-12-06T02:52:23.656Z,9.33
2018-12-06T02:54:52.022Z,5.37
2018-12-06T02:57:20.425Z,6.87
2018-12-06T02:59:48.814Z,16.87
2018-12-06T03:02:17.175Z,7.25
2018-12-06T03:04:45.573Z,13.62
2018-12-06T03:07:14.230Z,7.03
2018-12-06T03:09:42.725Z,7.10
2018-12-06T03:12:11.140Z,5.47
2018-12-06T03:14:40.626Z,6.60
2018-12-06T03:17:09.271Z,5.67
2018-12-06T03:19:37.986Z,4.53
2018-12-06T03:22:06.354Z,6.17
2018-12-06T03:24:34.736Z,5.10
2018-12-06T03:27:03.139Z,7.65
2018-12-06T03:29:31.553Z,7.22
2018-12-06T03:32:00.174Z,7.25
2018-12-06T03:34:28.873Z,9.40
2018-12-06T03:36:57.249Z,10.03
2018-12-06T03:39:25.691Z,8.35
2018-12-06T03:41:54.145Z,9.53
2018-12-06T03:44:22.513Z,9.28
2018-12-06T03:46:51.131Z,9.25
2018-12-06T03:49:19.795Z,9.28
2018-12-06T03:51:48.168Z,14.53
2018-12-06T03:54:16.559Z,12.75
2018-12-06T03:56:44.964Z,11.93
2018-12-06T03:59:13.340Z,9.13
2018-12-06T04:01:41.711Z,9.20
2018-12-06T04:04:10.094Z,9.33
2018-12-06T04:06:38.472Z,12.37
2018-12-06T04:09:07.447Z,11.60
2018-12-06T04:11:35.841Z,10.15
2018-12-06T04:14:04.436Z,10.88
2018-12-06T04:16:32.846Z,10.60
2018-12-06T04:19:01.265Z,16.67
2018-12-06T04:21:29.652Z,12.88
2018-12-06T04:23:58.019Z,12.98
2018-12-06T04:26:26.432Z,12.47
2018-12-06T04:28:54.811Z,10.80
2018-12-06T04:31:23.315Z,15.85
2018-12-06T04:33:51.738Z,12.85
2018-12-06T04:36:20.158Z,18.77
2018-12-06T04:38:48.544Z,17.00
2018-12-06T04:41:17.162Z,14.38
2018-12-06T04:43:45.541Z,14.58
2018-12-06T04:46:14.002Z,16.62
2018-12-06T04:48:42.402Z,17.48
2018-12-06T04:51:10.847Z,15.28
2018-12-06T04:53:39.234Z,19.37
2018-12-06T04:56:07.666Z,17.05
2018-12-06T04:58:36.043Z,15.80
2018-12-06T05:01:04.582Z,17.60
2018-12-06T05:03:32.997Z,19.73
2018-12-06T05:06:01.388Z,17.62
2018-12-06T05:08:29.754Z,19.30
2018-12-06T05:10:58.172Z,17.40
2018-12-06T05:13:26.547Z,15.95
2018-12-06T05:15:55.206Z,17.48
2018-12-06T05:18:23.725Z,19.17
2018-12-06T05:20:52.098Z,20.77
2018-12-06T05:23:20.614Z,16.02
2018-12-06T05:25:49.010Z,22.30
2018-12-06T05:28:17.388Z,23.67
2018-12-06T05:30:45.760Z,26.65
2018-12-06T05:33:14.191Z,27.82
2018-12-06T05:35:42.573Z,24.75
2018-12-06T05:38:11.251Z,22.20
2018-12-06T05:40:39.652Z,22.33
2018-12-06T05:43:08.032Z,24.93
2018-12-06T05:45:36.661Z,22.52
2018-12-06T05:48:05.057Z,23.73
2018-12-06T05:50:33.713Z,18.73
2018-12-06T05:53:02.101Z,30.57
2018-12-06T05:55:30.508Z,25.23
2018-12-06T05:57:58.889Z,32.00
2018-12-06T06:00:27.302Z,23.77
2018-12-06T06:02:55.712Z,25.63
2018-12-06T06:05:24.091Z,29.37
2018-12-06T06:07:52.478Z,31.00
2018-12-06T06:10:20.896Z,29.53
2018-12-06T06:12:49.322Z,26.60
2018-12-06T06:15:17.975Z,28.77
2018-12-06T06:17:46.407Z,34.10
2018-12-06T06:20:14.815Z,31.30
2018-12-06T06:22:43.243Z,36.03
2018-12-06T06:25:11.686Z,32.77
2018-12-06T06:27:40.284Z,37.03
2018-12-06T06:30:09.232Z,37.40
2018-12-06T06:32:37.676Z,36.50
2018-12-06T06:35:06.521Z,44.20
2018-12-06T06:37:34.914Z,31.77
2018-12-06T06:40:03.839Z,33.45
2018-12-06T06:42:32.224Z,28.07
2018-12-06T06:45:01.641Z,28.50
2018-12-06T06:47:30.141Z,35.60
2018-12-06T06:49:58.524Z,32.97
2018-12-06T06:52:27.224Z,38.63
2018-12-06T06:54:55.924Z,33.20
2018-12-06T06:57:24.300Z,36.03
2018-12-06T06:59:52.672Z,34.20
2018-12-06T07:02:21.089Z,42.60
2018-12-06T07:04:49.457Z,39.23
2018-12-06T07:07:17.832Z,33.90
2018-12-06T07:09:46.259Z,31.57
2018-12-06T07:12:14.892Z,31.73
2018-12-06T07:14:43.262Z,38.50
2018-12-06T07:17:11.970Z,34.20
2018-12-06T07:19:40.354Z,32.73
2018-12-06T07:22:08.737Z,32.43
2018-12-06T07:24:37.152Z,38.37
2018-12-06T07:27:05.627Z,41.03
2018-12-06T07:29:34.018Z,51.40
2018-12-06T07:32:02.424Z,46.83
2018-12-06T07:34:31.260Z,39.33
2018-12-06T07:36:59.645Z,43.25
2018-12-06T07:39:28.045Z,45.15
2018-12-06T07:41:56.420Z,71.35
2018-12-06T07:44:25.341Z,44.25
2018-12-06T07:46:53.761Z,44.27
2018-12-06T07:49:22.136Z,48.63
2018-12-06T07:51:50.564Z,42.62
2018-12-06T07:54:18.984Z,45.25
2018-12-06T07:56:47.383Z,44.87
2018-12-06T07:59:15.956Z,55.43
2018-12-06T08:01:44.676Z,60.83
2018-12-06T08:04:13.092Z,37.13
2018-12-06T08:06:41.491Z,40.23
2018-12-06T08:09:10.493Z,43.65
2018-12-06T08:11:38.878Z,25.73
2018-12-06T08:14:07.768Z,38.87
2018-12-06T08:16:36.174Z,23.73
2018-12-06T08:19:04.845Z,32.07
2018-12-06T08:21:33.511Z,40.70
2018-12-06T08:24:01.897Z,44.17
2018-12-06T08:26:30.291Z,31.47
2018-12-06T08:28:58.676Z,26.50
2018-12-06T08:31:27.388Z,29.50
2018-12-06T08:33:55.776Z,32.43
2018-12-06T08:36:24.480Z,39.60
2018-12-06T08:38:53.122Z,31.63
2018-12-06T08:41:21.492Z,24.50
2018-12-06T08:43:50.107Z,24.50
2018-12-06T08:46:18.519Z,27.93
2018-12-06T08:48:46.913Z,25.87
2018-12-06T08:51:15.319Z,25.40
2018-12-06T08:53:43.723Z,27.17
2018-12-06T08:56:12.111Z,28.07
2018-12-06T08:58:40.494Z,34.33
2018-12-06T09:01:09.104Z,28.27
2018-12-06T09:03:37.801Z,40.92
2018-12-06T09:06:06.196Z,26.33
2018-12-06T09:08:34.604Z,25.97
2018-12-06T09:11:02.997Z,31.30
2018-12-06T09:13:31.399Z,27.73
2018-12-06T09:15:59.792Z,29.40
2018-12-06T09:18:28.171Z,30.03
2018-12-06T09:20:56.538Z,21.97
2018-12-06T09:23:24.954Z,26.27
2018-12-06T09:25:53.365Z,24.47
2018-12-06T09:28:21.733Z,25.03
2018-12-06T09:30:50.259Z,29.67
2018-12-06T09:33:18.629Z,25.47
2018-12-06T09:35:47.029Z,18.97
2018-12-06T09:38:15.748Z,21.27
2018-12-06T09:40:44.579Z,21.23
2018-12-06T09:43:13.252Z,19.90
2018-12-06T09:45:41.654Z,21.40
2018-12-06T09:48:10.056Z,27.47
2018-12-06T09:50:38.486Z,26.83
2018-12-06T09:53:07.263Z,23.97
2018-12-06T09:55:35.886Z,18.07
2018-12-06T09:58:04.403Z,24.40
2018-12-06T10:00:32.931Z,20.60
2018-12-06T10:03:01.312Z,53.17
2018-12-06T10:05:29.689Z,29.60
2018-12-06T10:07:58.183Z,23.63
2018-12-06T10:10:26.563Z,24.87
2018-12-06T10:12:54.927Z,23.87
2018-12-06T10:15:23.622Z,19.30
2018-12-06T10:17:51.999Z,23.53
2018-12-06T10:20:20.376Z,20.83
2018-12-06T10:22:48.767Z,26.00
2018-12-06T10:25:17.182Z,25.97
2018-12-06T10:27:45.578Z,21.17
2018-12-06T10:30:14.244Z,29.20
2018-12-06T10:32:42.639Z,17.77
2018-12-06T10:35:11.043Z,24.80
2018-12-06T10:37:39.474Z,27.23
2018-12-06T10:40:08.387Z,28.17
2018-12-06T10:42:36.946Z,24.07
2018-12-06T10:45:06.623Z,22.13
2018-12-06T10:47:35.019Z,32.77
2018-12-06T10:50:03.979Z,28.90
2018-12-06T10:52:32.379Z,15.07
2018-12-06T10:55:00.763Z,23.57
2018-12-06T10:57:29.154Z,21.10
2018-12-06T10:59:58.143Z,17.47
2018-12-06T11:02:30.707Z,22.03
2018-12-06T11:04:59.100Z,34.20
2018-12-06T11:07:27.509Z,20.17
2018-12-06T11:09:55.907Z,19.00
2018-12-06T11:12:24.299Z,19.57
2018-12-06T11:14:52.689Z,27.27
2018-12-06T11:17:21.071Z,22.73
2018-12-06T11:19:49.499Z,24.50
2018-12-06T11:22:17.878Z,21.47
2018-12-06T11:24:46.252Z,28.77
2018-12-06T11:27:14.698Z,26.70
2018-12-06T11:29:43.109Z,17.30
2018-12-06T11:32:11.485Z,19.13
2018-12-06T11:34:40.061Z,23.80
2018-12-06T11:37:08.532Z,17.80
2018-12-06T11:39:36.982Z,15.37
2018-12-06T11:42:05.414Z,26.97
2018-12-06T11:44:33.798Z,22.40
2018-12-06T11:47:02.194Z,26.23
2018-12-06T11:49:30.609Z,20.33
2018-12-06T11:51:59.078Z,19.60
2018-12-06T11:54:27.464Z,17.53
2018-12-06T11:56:56.132Z,26.43
2018-12-06T11:59:24.529Z,22.37
2018-12-06T12:01:53.465Z,27.80
2018-12-06T12:04:21.880Z,26.40
2018-12-06T12:06:50.252Z,23.07
2018-12-06T12:09:18.645Z,24.10
2018-12-06T12:11:47.056Z,14.83
2018-12-06T12:14:15.456Z,15.70
2018-12-06T12:16:44.677Z,25.63
2018-12-06T12:19:13.071Z,12.67
2018-12-06T12:21:41.430Z,19.63
2018-12-06T12:24:09.916Z,12.90
2018-12-06T12:26:38.571Z,12.67
2018-12-06T12:29:07.189Z,16.17
2018-12-06T12:31:35.571Z,12.87
2018-12-06T12:34:04.092Z,14.90
2018-12-06T12:36:32.480Z,18.50
2018-12-06T12:39:00.860Z,17.97
2018-12-06T12:41:29.332Z,23.43
2018-12-06T12:43:57.719Z,9.00
2018-12-06T12:46:30.337Z,17.77
2018-12-06T12:48:58.798Z,11.80
2018-12-06T12:51:27.187Z,32.63
2018-12-06T12:53:55.922Z,11.97
2018-12-06T12:56:24.612Z,15.40
2018-12-06T12:58:53.279Z,13.13
2018-12-06T13:01:21.668Z,13.77
2018-12-06T13:03:50.084Z,15.83
2018-12-06T13:06:18.486Z,14.33
2018-12-06T13:08:46.882Z,12.80
2018-12-06T13:11:15.443Z,7.87
2018-12-06T13:13:43.830Z,17.33
2018-12-06T13:16:12.371Z,14.97
2018-12-06T13:18:40.933Z,21.20
2018-12-06T13:21:09.318Z,13.43
2018-12-06T13:23:37.738Z,11.77
2018-12-06T13:26:06.130Z,25.40
2018-12-06T13:28:34.517Z,13.27
2018-12-06T13:31:03.174Z,10.47
2018-12-06T13:33:31.627Z,10.90
2018-12-06T13:36:00.004Z,12.77
2018-12-06T13:38:28.888Z,9.37
2018-12-06T13:40:57.528Z,18.07
2018-12-06T13:43:26.249Z,12.33
2018-12-06T13:45:55.016Z,12.17
2018-12-06T13:48:23.643Z,10.67
2018-12-06T13:50:52.020Z,11.33
2018-12-06T13:53:20.658Z,17.40
2018-12-06T13:55:49.057Z,14.30
2018-12-06T13:58:17.451Z,14.20
2018-12-06T14:00:46.147Z,12.10
2018-12-06T14:03:14.872Z,15.37
2018-12-06T14:05:43.518Z,16.97
2018-12-06T14:08:11.921Z,15.27
2018-12-06T14:10:40.312Z,13.10
2018-12-06T14:13:08.705Z,10.57
2018-12-06T14:15:37.090Z,20.20
2018-12-06T14:18:05.712Z,9.93
2018-12-06T14:20:34.086Z,14.50
2018-12-06T14:23:02.542Z,9.00
2018-12-06T14:25:31.154Z,9.60
2018-12-06T14:27:59.536Z,7.83
2018-12-06T14:30:27.960Z,10.83
2018-12-06T14:32:56.338Z,6.97
2018-12-06T14:35:24.771Z,11.23
2018-12-06T14:37:53.437Z,6.83
2018-12-06T14:40:22.017Z,7.03
2018-12-06T14:42:51.069Z,11.23
2018-12-06T14:45:19.453Z,12.30
2018-12-06T14:47:47.999Z,8.40
2018-12-06T14:50:16.361Z,9.87
2018-12-06T14:52:44.770Z,6.70
2018-12-06T14:55:13.153Z,5.00
2018-12-06T14:57:41.843Z,7.17
2018-12-06T15:00:10.754Z,8.10
2018-12-06T15:02:39.149Z,12.33
2018-12-06T15:05:09.290Z,15.00
2018-12-06T15:07:37.707Z,4.90
2018-12-06T15:10:07.931Z,5.50
2018-12-06T15:12:36.316Z,5.73
2018-12-06T15:15:05.392Z,5.30
2018-12-06T15:17:33.892Z,7.97
2018-12-06T15:20:02.322Z,7.00
2018-12-06T15:22:30.725Z,6.17
2018-12-06T15:24:59.749Z,6.13
2018-12-06T15:27:28.364Z,5.90
2018-12-06T15:29:57.115Z,10.00
2018-12-06T15:32:25.714Z,8.40
2018-12-06T15:34:54.712Z,4.43
2018-12-06T15:37:23.127Z,5.03
2018-12-06T15:39:51.560Z,3.90
2018-12-06T15:42:20.158Z,4.80
2018-12-06T15:44:48.599Z,4.10
2018-12-06T15:47:17.009Z,3.00
2018-12-06T15:49:45.426Z,3.53
2018-12-06T15:52:13.883Z,4.03
2018-12-06T15:54:42.412Z,4.27
2018-12-06T15:57:10.845Z,4.50
2018-12-06T15:59:39.242Z,3.90
2018-12-06T16:02:07.829Z,3.83
2018-12-06T16:04:36.205Z,3.00
2018-12-06T16:07:04.713Z,4.03
2018-12-06T16:09:33.135Z,4.70
2018-12-06T16:12:01.528Z,2.80
2018-12-06T16:14:30.391Z,8.30
2018-12-06T16:16:58.804Z,5.50
2018-12-06T16:19:27.222Z,5.13
2018-12-06T16:21:55.639Z,4.17
2018-12-06T16:24:24.138Z,5.30
2018-12-06T16:26:52.519Z,7.10
2018-12-06T16:29:20.985Z,6.83
2018-12-06T16:31:49.621Z,5.57
2018-12-06T16:34:18.026Z,5.73
2018-12-06T16:36:46.439Z,5.93
2018-12-06T16:39:15.369Z,6.40
2018-12-06T16:41:43.729Z,6.30
2018-12-06T16:44:12.265Z,5.30
2018-12-06T16:46:40.674Z,7.00
2018-12-06T16:49:10.292Z,6.23
2018-12-06T16:51:39.717Z,9.00
2018-12-06T16:54:08.154Z,7.50
2018-12-06T16:56:36.554Z,8.90
2018-12-06T16:59:05.001Z,13.33
2018-12-06T17:01:33.515Z,8.70
2018-12-06T17:04:01.929Z,11.00
2018-12-06T17:06:30.328Z,9.10
2018-12-06T17:08:58.714Z,9.30
2018-12-06T17:11:27.388Z,14.00
2018-12-06T17:13:56.781Z,10.83
2018-12-06T17:16:25.413Z,10.60
2018-12-06T17:18:53.806Z,11.37
2018-12-06T17:21:22.463Z,15.80
2018-12-06T17:23:50.901Z,11.67
2018-12-06T17:26:19.442Z,12.77
2018-12-06T17:28:47.885Z,11.77
2018-12-06T17:31:16.603Z,11.60
2018-12-06T17:33:45.181Z,10.70
2018-12-06T17:36:13.875Z,10.90
2018-12-06T17:38:42.304Z,14.33
2018-12-06T17:41:10.714Z,17.53
2018-12-06T17:43:39.327Z,12.90
2018-12-06T17:46:08.102Z,19.33
2018-12-06T17:48:36.513Z,11.70
2018-12-06T17:51:05.154Z,16.57
2018-12-06T17:53:33.852Z,16.37
2018-12-06T17:56:02.544Z,11.57
2018-12-06T17:58:31.265Z,13.53
2018-12-06T18:01:00.138Z,16.43
2018-12-06T18:03:28.604Z,14.07
2018-12-06T18:05:57.051Z,13.93
2018-12-06T18:08:25.432Z,12.47
2018-12-06T18:10:54.059Z,16.20
2018-12-06T18:13:23.062Z,12.43
2018-12-06T18:15:52.113Z,13.33
2018-12-06T18:18:20.549Z,13.90
2018-12-06T18:20:48.994Z,17.07
2018-12-06T18:23:17.394Z,14.43
2018-12-06T18:25:45.808Z,35.43
2018-12-06T18:28:14.518Z,16.20
2018-12-06T18:30:43.209Z,14.17
2018-12-06T18:33:13.052Z,16.43
2018-12-06T18:35:41.511Z,13.37
2018-12-06T18:38:09.904Z,14.63
2018-12-06T18:40:38.297Z,15.83
2018-12-06T18:43:06.732Z,15.27
2018-12-06T18:45:35.130Z,14.13
2018-12-06T18:48:03.672Z,14.03
2018-12-06T18:50:32.091Z,12.43
2018-12-06T18:53:00.499Z,12.47
2018-12-06T18:55:28.905Z,12.67
2018-12-06T18:57:57.348Z,15.13
2018-12-06T19:00:25.930Z,18.40
2018-12-06T19:02:54.347Z,16.27
2018-12-06T19:05:22.780Z,15.07
2018-12-06T19:07:51.345Z,14.47
2018-12-06T19:10:19.726Z,11.73
2018-12-06T19:12:48.646Z,14.40
2018-12-06T19:15:17.055Z,10.70
2018-12-06T19:17:45.470Z,13.97
2018-12-06T19:20:13.875Z,11.63
2018-12-06T19:22:42.594Z,10.20
2018-12-06T19:25:11.265Z,10.43
2018-12-06T19:27:39.675Z,17.53
2018-12-06T19:30:09.483Z,12.40
2018-12-06T19:32:38.046Z,11.30
2018-12-06T19:35:07.280Z,10.40
2018-12-06T19:37:35.969Z,23.03
2018-12-06T19:40:04.851Z,11.00
2018-12-06T19:42:38.641Z,12.07
2018-12-06T19:45:04.398Z,14.23
2018-12-06T19:47:33.133Z,12.53
2018-12-06T19:50:01.595Z,10.77
2018-12-06T19:52:30.185Z,11.80
2018-12-06T19:54:58.786Z,10.17
2018-12-06T19:57:27.362Z,10.20
2018-12-06T19:59:55.744Z,8.17
2018-12-06T20:02:24.644Z,8.53
2018-12-06T20:04:53.102Z,10.43
2018-12-06T20:07:21.727Z,8.17
2018-12-06T20:09:51.757Z,8.20
2018-12-06T20:12:21.062Z,17.30
2018-12-06T20:14:49.470Z,7.73
2018-12-06T20:17:17.886Z,7.90
2018-12-06T20:19:46.316Z,7.97
2018-12-06T20:22:14.706Z,7.00
2018-12-06T20:24:43.529Z,6.83
2018-12-06T20:27:11.960Z,8.43
2018-12-06T20:29:40.366Z,7.90
2018-12-06T20:32:14.663Z,11.77
2018-12-06T20:34:39.433Z,7.40
2018-12-06T20:37:08.118Z,9.80
2018-12-06T20:39:37.079Z,9.83
2018-12-06T20:42:05.524Z,9.47
2018-12-06T20:44:34.346Z,8.80
2018-12-06T20:47:02.762Z,9.27
2018-12-06T20:49:31.529Z,8.30
2018-12-06T20:51:59.976Z,8.80
2018-12-06T20:54:28.388Z,7.87
2018-12-06T20:56:56.794Z,8.07
2018-12-06T20:59:25.182Z,8.60
2018-12-06T21:01:54.887Z,8.57
2018-12-06T21:04:23.460Z,9.27
2018-12-06T21:06:51.859Z,11.33
2018-12-06T21:09:20.414Z,6.90
2018-12-06T21:11:48.837Z,11.60
2018-12-06T21:14:22.138Z,9.77
2018-12-06T21:16:47.868Z,9.17
2018-12-06T21:19:16.428Z,9.60
2018-12-06T21:21:45.062Z,10.63
2018-12-06T21:24:13.481Z,11.37
2018-12-06T21:26:41.888Z,11.50
2018-12-06T21:29:10.575Z,8.57
2018-12-06T21:31:39.011Z,16.03
2018-12-06T21:34:07.601Z,11.40
2018-12-06T21:36:35.980Z,14.00
2018-12-06T21:39:07.362Z,10.10
2018-12-06T21:41:36.137Z,9.47
2018-12-06T21:44:04.778Z,16.57
2018-12-06T21:46:33.195Z,7.37
2018-12-06T21:49:01.619Z,12.70
2018-12-06T21:51:30.223Z,9.80
2018-12-06T21:53:58.737Z,8.00
2018-12-06T21:56:27.217Z,13.57
2018-12-06T21:58:55.601Z,7.03
2018-12-06T22:01:23.987Z,11.33
2018-12-06T22:03:52.506Z,9.60
2018-12-06T22:06:20.929Z,10.23
2018-12-06T22:08:49.570Z,10.43
2018-12-06T22:11:17.964Z,13.50
2018-12-06T22:13:46.325Z,2.63
2018-12-06T22:16:14.984Z,4.23
2018-12-06T22:18:43.785Z,3.93
2018-12-06T22:21:12.149Z,6.13
2018-12-06T22:23:40.691Z,5.80
2018-12-06T22:26:09.383Z,5.00
2018-12-06T22:28:37.758Z,5.10
2018-12-06T22:31:06.455Z,4.40
2018-12-06T22:33:34.878Z,8.53
2018-12-06T22:36:03.522Z,6.10
2018-12-06T22:38:34.315Z,5.80
2018-12-06T22:41:02.465Z,6.47
2018-12-06T22:43:31.133Z,5.23
2018-12-06T22:46:01.120Z,4.77
2018-12-06T22:48:29.742Z,5.37
2018-12-06T22:50:58.359Z,6.47
2018-12-06T22:53:26.949Z,11.77
2018-12-06T22:55:55.514Z,7.50
2018-12-06T22:58:23.938Z,7.10
2018-12-06T23:00:54.992Z,6.93
2018-12-06T23:03:23.849Z,14.40
2018-12-06T23:05:53.635Z,9.40
2018-12-06T23:08:22.437Z,8.27
2018-12-06T23:10:50.980Z,14.37
2018-12-06T23:13:19.382Z,7.80
2018-12-06T23:15:48.014Z,10.80
2018-12-06T23:18:16.418Z,8.23
2018-12-06T23:20:44.969Z,9.43
2018-12-06T23:23:13.376Z,13.87
2018-12-06T23:25:41.813Z,7.83
2018-12-06T23:28:10.190Z,12.03
2018-12-06T23:30:38.708Z,9.70
2018-12-06T23:33:07.336Z,9.83
2018-12-06T23:35:35.715Z,13.27
2018-12-06T23:38:04.091Z,16.50
2018-12-06T23:40:32.583Z,11.40
2018-12-06T23:43:01.029Z,9.77
2018-12-06T23:45:29.518Z,9.70
2018-12-06T23:47:57.989Z,9.83
2018-12-06T23:50:26.391Z,11.23
2018-12-06T23:52:54.768Z,13.00
2018-12-06T23:55:23.220Z,14.00
2018-12-06T23:57:51.603Z,10.80
